sensor_id;sensor_type;location;lat;lon;timestamp;pressure;altitude;pressure_sealevel;temperature;humidity
51195;BME280;37259;49.972;19.850;2022-08-19T00:00:07;98070;;;19.8;100
51195;BME280;37259;49.972;19.850;2022-08-19T00:01:07;98070;;;19.8;100
51195;BME280;37259;49.972;19.850;2022-08-19T00:02:07;98070;;;19.8;100
51195;BME280;37259;49.972;19.850;2022-08-19T00:03:07;98070;;;19.7;100
51195;BME280;37259;49.972;19.850;2022-08-19T00:04:08;98070;;;19.7;100
51195;BME280;37259;49.972;19.850;2022-08-19T00:05:07;98070;;;19.7;100
51195;BME280;37259;49.972;19.850;2022-08-19T00:06:07;98070;;;19.6;100
51195;BME280;37259;49.972;19.850;2022-08-19T00:07:07;98070;;;19.6;100
51195;BME280;37259;49.972;19.850;2022-08-19T00:08:07;98070;;;19.5;100
51195;BME280;37259;49.972;19.850;2022-08-19T00:09:08;98070;;;19.5;100
51195;BME280;37259;49.972;19.850;2022-08-19T00:10:07;98070;;;19.6;100
51195;BME280;37259;49.972;19.850;2022-08-19T00:11:07;98070;;;19.6;100
51195;BME280;37259;49.972;19.850;2022-08-19T00:12:07;98070;;;19.5;100
51195;BME280;37259;49.972;19.850;2022-08-19T00:13:07;98070;;;19.5;100
51195;BME280;37259;49.972;19.850;2022-08-19T00:14:08;98070;;;19.5;100
51195;BME280;37259;49.972;19.850;2022-08-19T00:15:08;98070;;;19.5;100
51195;BME280;37259;49.972;19.850;2022-08-19T00:16:07;98070;;;19.5;100
51195;BME280;37259;49.972;19.850;2022-08-19T00:17:07;98070;;;19.5;100
51195;BME280;37259;49.972;19.850;2022-08-19T00:18:07;98070;;;19.5;100
51195;BME280;37259;49.972;19.850;2022-08-19T00:19:07;98070;;;19.5;100
51195;BME280;37259;49.972;19.850;2022-08-19T00:20:07;98070;;;19.5;100
51195;BME280;37259;49.972;19.850;2022-08-19T00:21:07;98070;;;19.5;100
51195;BME280;37259;49.972;19.850;2022-08-19T00:22:07;98070;;;19.5;100
51195;BME280;37259;49.972;19.850;2022-08-19T00:23:07;98070;;;19.5;100
51195;BME280;37259;49.972;19.850;2022-08-19T00:24:07;98070;;;19.5;100
51195;BME280;37259;49.972;19.850;2022-08-19T00:25:07;98070;;;19.5;100
51195;BME280;37259;49.972;19.850;2022-08-19T00:26:07;98070;;;19.5;100
51195;BME280;37259;49.972;19.850;2022-08-19T00:27:07;98070;;;19.5;100
51195;BME280;37259;49.972;19.850;2022-08-19T00:28:07;98070;;;19.5;100
51195;BME280;37259;49.972;19.850;2022-08-19T00:29:08;98070;;;19.5;100
51195;BME280;37259;49.972;19.850;2022-08-19T00:30:07;98060;;;19.5;100
51195;BME280;37259;49.972;19.850;2022-08-19T00:31:07;98060;;;19.5;100
51195;BME280;37259;49.972;19.850;2022-08-19T00:32:07;98070;;;19.5;100
51195;BME280;37259;49.972;19.850;2022-08-19T00:33:07;98070;;;19.5;100
51195;BME280;37259;49.972;19.850;2022-08-19T00:34:07;98070;;;19.5;100
51195;BME280;37259;49.972;19.850;2022-08-19T00:35:07;98070;;;19.5;100
51195;BME280;37259;49.972;19.850;2022-08-19T00:36:07;98070;;;19.5;100
51195;BME280;37259;49.972;19.850;2022-08-19T00:37:07;98070;;;19.5;100
51195;BME280;37259;49.972;19.850;2022-08-19T00:38:07;98070;;;19.5;100
51195;BME280;37259;49.972;19.850;2022-08-19T00:39:07;98070;;;19.5;100
51195;BME280;37259;49.972;19.850;2022-08-19T00:40:07;98070;;;19.5;100
51195;BME280;37259;49.972;19.850;2022-08-19T00:41:07;98070;;;19.4;100
51195;BME280;37259;49.972;19.850;2022-08-19T00:42:07;98070;;;19.4;100
51195;BME280;37259;49.972;19.850;2022-08-19T00:43:08;98070;;;19.4;100
51195;BME280;37259;49.972;19.850;2022-08-19T00:44:08;98070;;;19.4;100
51195;BME280;37259;49.972;19.850;2022-08-19T00:45:09;98070;;;19.4;100
51195;BME280;37259;49.972;19.850;2022-08-19T00:46:07;98070;;;19.4;100
51195;BME280;37259;49.972;19.850;2022-08-19T00:47:07;98070;;;19.4;100
51195;BME280;37259;49.972;19.850;2022-08-19T00:48:07;98070;;;19.4;100
51195;BME280;37259;49.972;19.850;2022-08-19T00:49:09;98060;;;19.4;100
51195;BME280;37259;49.972;19.850;2022-08-19T00:50:07;98060;;;19.4;100
51195;BME280;37259;49.972;19.850;2022-08-19T00:51:07;98070;;;19.4;100
51195;BME280;37259;49.972;19.850;2022-08-19T00:52:07;98060;;;19.4;100
51195;BME280;37259;49.972;19.850;2022-08-19T00:53:07;98060;;;19.4;100
51195;BME280;37259;49.972;19.850;2022-08-19T00:54:07;98060;;;19.4;100
51195;BME280;37259;49.972;19.850;2022-08-19T00:55:07;98060;;;19.4;100
51195;BME280;37259;49.972;19.850;2022-08-19T00:56:07;98060;;;19.4;100
51195;BME280;37259;49.972;19.850;2022-08-19T00:57:08;98060;;;19.4;100
51195;BME280;37259;49.972;19.850;2022-08-19T00:58:07;98050;;;19.4;100
51195;BME280;37259;49.972;19.850;2022-08-19T00:59:07;98050;;;19.4;100
51195;BME280;37259;49.972;19.850;2022-08-19T01:00:07;98040;;;19.4;100
51195;BME280;37259;49.972;19.850;2022-08-19T01:01:07;98040;;;19.4;100
51195;BME280;37259;49.972;19.850;2022-08-19T01:02:08;98050;;;19.3;100
51195;BME280;37259;49.972;19.850;2022-08-19T01:03:08;98050;;;19.3;100
51195;BME280;37259;49.972;19.850;2022-08-19T01:04:07;98050;;;19.3;100
51195;BME280;37259;49.972;19.850;2022-08-19T01:05:08;98050;;;19.3;100
51195;BME280;37259;49.972;19.850;2022-08-19T01:06:07;98050;;;19.3;100
51195;BME280;37259;49.972;19.850;2022-08-19T01:07:07;98050;;;19.3;100
51195;BME280;37259;49.972;19.850;2022-08-19T01:08:07;98040;;;19.4;100
51195;BME280;37259;49.972;19.850;2022-08-19T01:09:07;98050;;;19.4;100
51195;BME280;37259;49.972;19.850;2022-08-19T01:10:08;98050;;;19.4;100
51195;BME280;37259;49.972;19.850;2022-08-19T01:11:07;98040;;;19.3;100
51195;BME280;37259;49.972;19.850;2022-08-19T01:12:07;98050;;;19.4;100
51195;BME280;37259;49.972;19.850;2022-08-19T01:13:07;98050;;;19.4;100
51195;BME280;37259;49.972;19.850;2022-08-19T01:14:07;98040;;;19.3;100
51195;BME280;37259;49.972;19.850;2022-08-19T01:15:08;98040;;;19.3;100
51195;BME280;37259;49.972;19.850;2022-08-19T01:16:08;98040;;;19.3;100
51195;BME280;37259;49.972;19.850;2022-08-19T01:17:07;98040;;;19.3;100
51195;BME280;37259;49.972;19.850;2022-08-19T01:18:08;98050;;;19.3;100
51195;BME280;37259;49.972;19.850;2022-08-19T01:19:09;98050;;;19.2;100
51195;BME280;37259;49.972;19.850;2022-08-19T01:20:09;98040;;;19.2;100
51195;BME280;37259;49.972;19.850;2022-08-19T01:21:08;98050;;;19.1;100
51195;BME280;37259;49.972;19.850;2022-08-19T01:22:08;98050;;;19.1;100
51195;BME280;37259;49.972;19.850;2022-08-19T01:23:07;98040;;;19.1;100
51195;BME280;37259;49.972;19.850;2022-08-19T01:24:07;98040;;;19.1;100
51195;BME280;37259;49.972;19.850;2022-08-19T01:25:07;98040;;;19.1;100
51195;BME280;37259;49.972;19.850;2022-08-19T01:26:07;98040;;;19.1;100
51195;BME280;37259;49.972;19.850;2022-08-19T01:27:07;98030;;;19.2;100
51195;BME280;37259;49.972;19.850;2022-08-19T01:28:07;98030;;;19.2;100
51195;BME280;37259;49.972;19.850;2022-08-19T01:29:07;98020;;;19.1;100
51195;BME280;37259;49.972;19.850;2022-08-19T01:30:07;98020;;;19.1;100
51195;BME280;37259;49.972;19.850;2022-08-19T01:31:07;98020;;;19.1;100
51195;BME280;37259;49.972;19.850;2022-08-19T01:32:07;98020;;;19.1;100
51195;BME280;37259;49.972;19.850;2022-08-19T01:33:07;98020;;;19.1;100
51195;BME280;37259;49.972;19.850;2022-08-19T01:34:07;98020;;;19.1;100
51195;BME280;37259;49.972;19.850;2022-08-19T01:35:07;98020;;;19.1;100
51195;BME280;37259;49.972;19.850;2022-08-19T01:36:08;98020;;;19.1;100
51195;BME280;37259;49.972;19.850;2022-08-19T01:37:08;98020;;;19;100
51195;BME280;37259;49.972;19.850;2022-08-19T01:38:08;98020;;;19;100
51195;BME280;37259;49.972;19.850;2022-08-19T01:39:08;98020;;;19;100
51195;BME280;37259;49.972;19.850;2022-08-19T01:40:07;98020;;;19;100
51195;BME280;37259;49.972;19.850;2022-08-19T01:41:07;98020;;;19;100
51195;BME280;37259;49.972;19.850;2022-08-19T01:42:07;98020;;;19;100
51195;BME280;37259;49.972;19.850;2022-08-19T01:43:07;98020;;;19;100
51195;BME280;37259;49.972;19.850;2022-08-19T01:44:07;98030;;;19;100
51195;BME280;37259;49.972;19.850;2022-08-19T01:45:07;98030;;;19;100
51195;BME280;37259;49.972;19.850;2022-08-19T01:46:07;98030;;;19;100
51195;BME280;37259;49.972;19.850;2022-08-19T01:47:07;98030;;;18.9;100
51195;BME280;37259;49.972;19.850;2022-08-19T01:48:07;98030;;;18.9;100
51195;BME280;37259;49.972;19.850;2022-08-19T01:49:07;98030;;;18.9;100
51195;BME280;37259;49.972;19.850;2022-08-19T01:50:08;98030;;;18.9;100
51195;BME280;37259;49.972;19.850;2022-08-19T01:51:07;98030;;;18.9;100
51195;BME280;37259;49.972;19.850;2022-08-19T01:52:07;98030;;;18.9;100
51195;BME280;37259;49.972;19.850;2022-08-19T01:53:08;98020;;;18.9;100
51195;BME280;37259;49.972;19.850;2022-08-19T01:54:07;98020;;;18.9;100
51195;BME280;37259;49.972;19.850;2022-08-19T01:55:09;98020;;;18.9;100
51195;BME280;37259;49.972;19.850;2022-08-19T01:56:07;98020;;;18.9;100
51195;BME280;37259;49.972;19.850;2022-08-19T01:57:08;98030;;;18.9;100
51195;BME280;37259;49.972;19.850;2022-08-19T01:58:08;98030;;;18.9;100
51195;BME280;37259;49.972;19.850;2022-08-19T01:59:08;98020;;;18.8;100
51195;BME280;37259;49.972;19.850;2022-08-19T02:00:09;98020;;;18.8;100
51195;BME280;37259;49.972;19.850;2022-08-19T02:01:07;98020;;;18.8;100
51195;BME280;37259;49.972;19.850;2022-08-19T02:02:07;98020;;;18.8;100
51195;BME280;37259;49.972;19.850;2022-08-19T02:03:07;98020;;;18.8;100
51195;BME280;37259;49.972;19.850;2022-08-19T02:04:07;98030;;;18.8;100
51195;BME280;37259;49.972;19.850;2022-08-19T02:05:07;98030;;;18.8;100
51195;BME280;37259;49.972;19.850;2022-08-19T02:06:07;98020;;;18.7;100
51195;BME280;37259;49.972;19.850;2022-08-19T02:07:07;98020;;;18.7;100
51195;BME280;37259;49.972;19.850;2022-08-19T02:08:07;98030;;;18.7;100
51195;BME280;37259;49.972;19.850;2022-08-19T02:09:08;98030;;;18.7;100
51195;BME280;37259;49.972;19.850;2022-08-19T02:10:08;98020;;;18.7;100
51195;BME280;37259;49.972;19.850;2022-08-19T02:11:07;98020;;;18.7;100
51195;BME280;37259;49.972;19.850;2022-08-19T02:12:07;98020;;;18.7;100
51195;BME280;37259;49.972;19.850;2022-08-19T02:13:07;98020;;;18.7;100
51195;BME280;37259;49.972;19.850;2022-08-19T02:14:07;98020;;;18.7;100
51195;BME280;37259;49.972;19.850;2022-08-19T02:15:07;98010;;;18.6;100
51195;BME280;37259;49.972;19.850;2022-08-19T02:16:07;98010;;;18.6;100
51195;BME280;37259;49.972;19.850;2022-08-19T02:17:07;98010;;;18.6;100
51195;BME280;37259;49.972;19.850;2022-08-19T02:18:07;98010;;;18.6;100
51195;BME280;37259;49.972;19.850;2022-08-19T02:19:07;98010;;;18.6;100
51195;BME280;37259;49.972;19.850;2022-08-19T02:20:07;98010;;;18.6;100
51195;BME280;37259;49.972;19.850;2022-08-19T02:21:07;98000;;;18.5;100
51195;BME280;37259;49.972;19.850;2022-08-19T02:22:07;98010;;;18.5;100
51195;BME280;37259;49.972;19.850;2022-08-19T02:23:07;98010;;;18.5;100
51195;BME280;37259;49.972;19.850;2022-08-19T02:24:07;98010;;;18.5;100
51195;BME280;37259;49.972;19.850;2022-08-19T02:25:07;98000;;;18.5;100
51195;BME280;37259;49.972;19.850;2022-08-19T02:26:07;98000;;;18.5;100
51195;BME280;37259;49.972;19.850;2022-08-19T02:27:07;98000;;;18.5;100
51195;BME280;37259;49.972;19.850;2022-08-19T02:28:07;98000;;;18.5;100
51195;BME280;37259;49.972;19.850;2022-08-19T02:29:07;98000;;;18.5;100
51195;BME280;37259;49.972;19.850;2022-08-19T02:30:08;98000;;;18.5;100
51195;BME280;37259;49.972;19.850;2022-08-19T02:31:08;98000;;;18.5;100
51195;BME280;37259;49.972;19.850;2022-08-19T02:32:07;98000;;;18.5;100
51195;BME280;37259;49.972;19.850;2022-08-19T02:33:07;98000;;;18.5;100
51195;BME280;37259;49.972;19.850;2022-08-19T02:34:07;98000;;;18.5;100
51195;BME280;37259;49.972;19.850;2022-08-19T02:35:07;98000;;;18.5;100
51195;BME280;37259;49.972;19.850;2022-08-19T02:36:07;98000;;;18.4;100
51195;BME280;37259;49.972;19.850;2022-08-19T02:37:07;98000;;;18.4;100
51195;BME280;37259;49.972;19.850;2022-08-19T02:38:07;98000;;;18.4;100
51195;BME280;37259;49.972;19.850;2022-08-19T02:39:07;98010;;;18.4;100
51195;BME280;37259;49.972;19.850;2022-08-19T02:40:07;98010;;;18.4;100
51195;BME280;37259;49.972;19.850;2022-08-19T02:41:07;98010;;;18.4;100
51195;BME280;37259;49.972;19.850;2022-08-19T02:42:07;98010;;;18.4;100
51195;BME280;37259;49.972;19.850;2022-08-19T02:43:08;98010;;;18.4;100
51195;BME280;37259;49.972;19.850;2022-08-19T02:44:07;98010;;;18.4;100
51195;BME280;37259;49.972;19.850;2022-08-19T02:45:07;98010;;;18.4;100
51195;BME280;37259;49.972;19.850;2022-08-19T02:46:15;98010;;;18.4;100
51195;BME280;37259;49.972;19.850;2022-08-19T02:47:07;98010;;;18.5;100
51195;BME280;37259;49.972;19.850;2022-08-19T02:48:07;98010;;;18.5;100
51195;BME280;37259;49.972;19.850;2022-08-19T02:49:07;98010;;;18.4;100
51195;BME280;37259;49.972;19.850;2022-08-19T02:50:07;98010;;;18.4;100
51195;BME280;37259;49.972;19.850;2022-08-19T02:51:07;98010;;;18.4;100
51195;BME280;37259;49.972;19.850;2022-08-19T02:52:07;98010;;;18.4;100
51195;BME280;37259;49.972;19.850;2022-08-19T02:53:07;98010;;;18.4;100
51195;BME280;37259;49.972;19.850;2022-08-19T02:54:08;98020;;;18.4;100
51195;BME280;37259;49.972;19.850;2022-08-19T02:55:07;98020;;;18.3;100
51195;BME280;37259;49.972;19.850;2022-08-19T02:56:07;98020;;;18.3;100
51195;BME280;37259;49.972;19.850;2022-08-19T02:57:07;98020;;;18.3;100
51195;BME280;37259;49.972;19.850;2022-08-19T02:58:07;98020;;;18.3;100
51195;BME280;37259;49.972;19.850;2022-08-19T02:59:07;98020;;;18.3;100
51195;BME280;37259;49.972;19.850;2022-08-19T03:00:07;98020;;;18.3;100
51195;BME280;37259;49.972;19.850;2022-08-19T03:01:07;98020;;;18.3;100
51195;BME280;37259;49.972;19.850;2022-08-19T03:02:07;98020;;;18.4;100
51195;BME280;37259;49.972;19.850;2022-08-19T03:03:07;98020;;;18.4;100
51195;BME280;37259;49.972;19.850;2022-08-19T03:04:07;98030;;;18.4;100
51195;BME280;37259;49.972;19.850;2022-08-19T03:05:07;98030;;;18.4;100
51195;BME280;37259;49.972;19.850;2022-08-19T03:06:07;98020;;;18.4;100
51195;BME280;37259;49.972;19.850;2022-08-19T03:07:07;98020;;;18.4;100
51195;BME280;37259;49.972;19.850;2022-08-19T03:08:07;98030;;;18.3;100
51195;BME280;37259;49.972;19.850;2022-08-19T03:09:07;98030;;;18.3;100
51195;BME280;37259;49.972;19.850;2022-08-19T03:10:07;98030;;;18.2;100
51195;BME280;37259;49.972;19.850;2022-08-19T03:11:11;98030;;;18.2;100
51195;BME280;37259;49.972;19.850;2022-08-19T03:12:07;98030;;;18.2;100
51195;BME280;37259;49.972;19.850;2022-08-19T03:13:07;98030;;;18.1;100
51195;BME280;37259;49.972;19.850;2022-08-19T03:14:08;98030;;;18.1;100
51195;BME280;37259;49.972;19.850;2022-08-19T03:15:07;98030;;;18.1;100
51195;BME280;37259;49.972;19.850;2022-08-19T03:16:07;98030;;;18.2;100
51195;BME280;37259;49.972;19.850;2022-08-19T03:17:07;98020;;;18;100
51195;BME280;37259;49.972;19.850;2022-08-19T03:18:07;98020;;;18;100
51195;BME280;37259;49.972;19.850;2022-08-19T03:19:07;98020;;;18;100
51195;BME280;37259;49.972;19.850;2022-08-19T03:20:07;98020;;;18;100
51195;BME280;37259;49.972;19.850;2022-08-19T03:21:07;98020;;;18;100
51195;BME280;37259;49.972;19.850;2022-08-19T03:22:07;98020;;;18.1;100
51195;BME280;37259;49.972;19.850;2022-08-19T03:23:07;98020;;;18.1;100
51195;BME280;37259;49.972;19.850;2022-08-19T03:24:07;98020;;;18.1;100
51195;BME280;37259;49.972;19.850;2022-08-19T03:25:07;98020;;;18.1;100
51195;BME280;37259;49.972;19.850;2022-08-19T03:26:07;98020;;;18.1;100
51195;BME280;37259;49.972;19.850;2022-08-19T03:27:07;98030;;;18.2;100
51195;BME280;37259;49.972;19.850;2022-08-19T03:28:07;98030;;;18.2;100
51195;BME280;37259;49.972;19.850;2022-08-19T03:29:07;98030;;;18.2;100
51195;BME280;37259;49.972;19.850;2022-08-19T03:30:07;98030;;;18.2;100
51195;BME280;37259;49.972;19.850;2022-08-19T03:31:08;98030;;;18.2;100
51195;BME280;37259;49.972;19.850;2022-08-19T03:32:07;98030;;;18.2;100
51195;BME280;37259;49.972;19.850;2022-08-19T03:33:07;98040;;;18.2;100
51195;BME280;37259;49.972;19.850;2022-08-19T03:34:07;98040;;;18.2;100
51195;BME280;37259;49.972;19.850;2022-08-19T03:35:07;98030;;;18.2;100
51195;BME280;37259;49.972;19.850;2022-08-19T03:36:08;98040;;;18.2;100
51195;BME280;37259;49.972;19.850;2022-08-19T03:37:09;98040;;;18.2;100
51195;BME280;37259;49.972;19.850;2022-08-19T03:38:07;98040;;;18.1;100
51195;BME280;37259;49.972;19.850;2022-08-19T03:39:07;98030;;;18.1;100
51195;BME280;37259;49.972;19.850;2022-08-19T03:40:07;98030;;;18.1;100
51195;BME280;37259;49.972;19.850;2022-08-19T03:41:07;98030;;;18.1;100
51195;BME280;37259;49.972;19.850;2022-08-19T03:42:07;98040;;;18.1;100
51195;BME280;37259;49.972;19.850;2022-08-19T03:43:07;98040;;;18.1;100
51195;BME280;37259;49.972;19.850;2022-08-19T03:44:07;98040;;;18.1;100
51195;BME280;37259;49.972;19.850;2022-08-19T03:45:07;98040;;;18.1;100
51195;BME280;37259;49.972;19.850;2022-08-19T03:46:08;98030;;;18.1;100
51195;BME280;37259;49.972;19.850;2022-08-19T03:47:07;98030;;;18.1;100
51195;BME280;37259;49.972;19.850;2022-08-19T03:48:07;98040;;;18.1;100
51195;BME280;37259;49.972;19.850;2022-08-19T03:49:07;98030;;;18.1;100
51195;BME280;37259;49.972;19.850;2022-08-19T03:50:07;98030;;;18.1;100
51195;BME280;37259;49.972;19.850;2022-08-19T03:51:07;98030;;;18.2;100
51195;BME280;37259;49.972;19.850;2022-08-19T03:52:07;98040;;;18.2;100
51195;BME280;37259;49.972;19.850;2022-08-19T03:53:07;98040;;;18.2;100
51195;BME280;37259;49.972;19.850;2022-08-19T03:54:08;98040;;;18.2;100
51195;BME280;37259;49.972;19.850;2022-08-19T03:55:07;98040;;;18.2;100
51195;BME280;37259;49.972;19.850;2022-08-19T03:56:08;98040;;;18.2;100
51195;BME280;37259;49.972;19.850;2022-08-19T03:57:07;98040;;;18.2;100
51195;BME280;37259;49.972;19.850;2022-08-19T03:58:07;98040;;;18.2;100
51195;BME280;37259;49.972;19.850;2022-08-19T03:59:08;98040;;;18.2;100
51195;BME280;37259;49.972;19.850;2022-08-19T04:00:07;98030;;;18.2;100
51195;BME280;37259;49.972;19.850;2022-08-19T04:01:07;98030;;;18.2;100
51195;BME280;37259;49.972;19.850;2022-08-19T04:02:08;98030;;;18.2;100
51195;BME280;37259;49.972;19.850;2022-08-19T04:03:07;98020;;;18.2;100
51195;BME280;37259;49.972;19.850;2022-08-19T04:04:07;98020;;;18.2;100
51195;BME280;37259;49.972;19.850;2022-08-19T04:05:07;98020;;;18.2;100
51195;BME280;37259;49.972;19.850;2022-08-19T04:06:10;98010;;;18.2;100
51195;BME280;37259;49.972;19.850;2022-08-19T04:07:07;98020;;;18.2;100
51195;BME280;37259;49.972;19.850;2022-08-19T04:08:07;98020;;;18.2;100
51195;BME280;37259;49.972;19.850;2022-08-19T04:09:08;98020;;;18.2;100
51195;BME280;37259;49.972;19.850;2022-08-19T04:10:07;98020;;;18.2;100
51195;BME280;37259;49.972;19.850;2022-08-19T04:11:07;98020;;;18.2;100
51195;BME280;37259;49.972;19.850;2022-08-19T04:12:07;98020;;;18.3;100
51195;BME280;37259;49.972;19.850;2022-08-19T04:13:07;98020;;;18.2;100
51195;BME280;37259;49.972;19.850;2022-08-19T04:14:07;98030;;;18.2;100
51195;BME280;37259;49.972;19.850;2022-08-19T04:15:07;98030;;;18.3;100
51195;BME280;37259;49.972;19.850;2022-08-19T04:16:07;98030;;;18.3;100
51195;BME280;37259;49.972;19.850;2022-08-19T04:17:07;98030;;;18.3;100
51195;BME280;37259;49.972;19.850;2022-08-19T04:18:07;98030;;;18.3;100
51195;BME280;37259;49.972;19.850;2022-08-19T04:19:07;98030;;;18.4;100
51195;BME280;37259;49.972;19.850;2022-08-19T04:20:07;98030;;;18.4;100
51195;BME280;37259;49.972;19.850;2022-08-19T04:21:07;98030;;;18.4;100
51195;BME280;37259;49.972;19.850;2022-08-19T04:22:07;98030;;;18.4;100
51195;BME280;37259;49.972;19.850;2022-08-19T04:23:07;98030;;;18.5;100
51195;BME280;37259;49.972;19.850;2022-08-19T04:24:07;98040;;;18.5;100
51195;BME280;37259;49.972;19.850;2022-08-19T04:25:07;98040;;;18.5;100
51195;BME280;37259;49.972;19.850;2022-08-19T04:26:07;98040;;;18.5;100
51195;BME280;37259;49.972;19.850;2022-08-19T04:27:07;98030;;;18.6;100
51195;BME280;37259;49.972;19.850;2022-08-19T04:28:07;98030;;;18.6;100
51195;BME280;37259;49.972;19.850;2022-08-19T04:29:08;98030;;;18.7;100
51195;BME280;37259;49.972;19.850;2022-08-19T04:30:07;98030;;;18.7;100
51195;BME280;37259;49.972;19.850;2022-08-19T04:31:11;98030;;;18.7;100
51195;BME280;37259;49.972;19.850;2022-08-19T04:32:07;98040;;;18.7;100
51195;BME280;37259;49.972;19.850;2022-08-19T04:33:07;98030;;;18.7;100
51195;BME280;37259;49.972;19.850;2022-08-19T04:34:07;98030;;;18.7;100
51195;BME280;37259;49.972;19.850;2022-08-19T04:35:07;98030;;;18.8;100
51195;BME280;37259;49.972;19.850;2022-08-19T04:36:07;98040;;;18.8;100
51195;BME280;37259;49.972;19.850;2022-08-19T04:37:07;98040;;;18.8;100
51195;BME280;37259;49.972;19.850;2022-08-19T04:38:07;98040;;;18.8;100
51195;BME280;37259;49.972;19.850;2022-08-19T04:39:08;98040;;;18.8;100
51195;BME280;37259;49.972;19.850;2022-08-19T04:40:07;98040;;;18.8;100
51195;BME280;37259;49.972;19.850;2022-08-19T04:41:07;98050;;;18.9;100
51195;BME280;37259;49.972;19.850;2022-08-19T04:42:07;98050;;;18.9;100
51195;BME280;37259;49.972;19.850;2022-08-19T04:43:07;98050;;;18.9;100
51195;BME280;37259;49.972;19.850;2022-08-19T04:44:07;98050;;;18.9;100
51195;BME280;37259;49.972;19.850;2022-08-19T04:45:08;98060;;;19.1;100
51195;BME280;37259;49.972;19.850;2022-08-19T04:46:07;98060;;;19.1;100
51195;BME280;37259;49.972;19.850;2022-08-19T04:47:07;98060;;;19.1;100
51195;BME280;37259;49.972;19.850;2022-08-19T04:48:07;98060;;;19.1;100
51195;BME280;37259;49.972;19.850;2022-08-19T04:49:07;98070;;;19.2;100
51195;BME280;37259;49.972;19.850;2022-08-19T04:50:07;98070;;;19.2;100
51195;BME280;37259;49.972;19.850;2022-08-19T04:51:08;98070;;;19.2;100
51195;BME280;37259;49.972;19.850;2022-08-19T04:52:07;98070;;;19.3;100
51195;BME280;37259;49.972;19.850;2022-08-19T04:53:07;98070;;;19.3;100
51195;BME280;37259;49.972;19.850;2022-08-19T04:54:07;98080;;;19.4;100
51195;BME280;37259;49.972;19.850;2022-08-19T04:55:07;98080;;;19.5;100
51195;BME280;37259;49.972;19.850;2022-08-19T04:56:08;98080;;;19.5;100
51195;BME280;37259;49.972;19.850;2022-08-19T04:57:07;98090;;;19.5;100
51195;BME280;37259;49.972;19.850;2022-08-19T04:58:07;98090;;;19.5;100
51195;BME280;37259;49.972;19.850;2022-08-19T04:59:07;98090;;;19.5;100
51195;BME280;37259;49.972;19.850;2022-08-19T05:00:07;98090;;;19.6;100
51195;BME280;37259;49.972;19.850;2022-08-19T05:01:07;98090;;;19.6;100
51195;BME280;37259;49.972;19.850;2022-08-19T05:02:07;98090;;;19.7;100
51195;BME280;37259;49.972;19.850;2022-08-19T05:03:07;98090;;;19.7;100
51195;BME280;37259;49.972;19.850;2022-08-19T05:04:07;98080;;;19.8;100
51195;BME280;37259;49.972;19.850;2022-08-19T05:05:07;98080;;;19.8;100
51195;BME280;37259;49.972;19.850;2022-08-19T05:06:07;98080;;;19.9;100
51195;BME280;37259;49.972;19.850;2022-08-19T05:07:07;98080;;;19.9;100
51195;BME280;37259;49.972;19.850;2022-08-19T05:08:07;98100;;;19.9;100
51195;BME280;37259;49.972;19.850;2022-08-19T05:09:07;98090;;;20;100
51195;BME280;37259;49.972;19.850;2022-08-19T05:10:07;98090;;;20;100
51195;BME280;37259;49.972;19.850;2022-08-19T05:11:07;98090;;;20.1;100
51195;BME280;37259;49.972;19.850;2022-08-19T05:12:07;98090;;;20.1;100
51195;BME280;37259;49.972;19.850;2022-08-19T05:13:07;98090;;;20.2;100
51195;BME280;37259;49.972;19.850;2022-08-19T05:14:07;98090;;;20.2;100
51195;BME280;37259;49.972;19.850;2022-08-19T05:15:07;98090;;;20.3;100
51195;BME280;37259;49.972;19.850;2022-08-19T05:16:07;98090;;;20.3;100
51195;BME280;37259;49.972;19.850;2022-08-19T05:17:07;98090;;;20.3;100
51195;BME280;37259;49.972;19.850;2022-08-19T05:18:07;98090;;;20.3;100
51195;BME280;37259;49.972;19.850;2022-08-19T05:19:07;98100;;;20.3;100
51195;BME280;37259;49.972;19.850;2022-08-19T05:20:07;98100;;;20.3;100
51195;BME280;37259;49.972;19.850;2022-08-19T05:21:07;98100;;;20.4;100
51195;BME280;37259;49.972;19.850;2022-08-19T05:22:07;98100;;;20.4;100
51195;BME280;37259;49.972;19.850;2022-08-19T05:23:07;98100;;;20.5;100
51195;BME280;37259;49.972;19.850;2022-08-19T05:24:07;98090;;;20.5;100
51195;BME280;37259;49.972;19.850;2022-08-19T05:25:08;98090;;;20.5;100
51195;BME280;37259;49.972;19.850;2022-08-19T05:26:07;98090;;;20.6;100
51195;BME280;37259;49.972;19.850;2022-08-19T05:27:07;98090;;;20.6;100
51195;BME280;37259;49.972;19.850;2022-08-19T05:28:07;98090;;;20.6;100
51195;BME280;37259;49.972;19.850;2022-08-19T05:29:07;98090;;;20.6;100
51195;BME280;37259;49.972;19.850;2022-08-19T05:30:07;98090;;;20.7;100
51195;BME280;37259;49.972;19.850;2022-08-19T05:31:07;98090;;;20.7;100
51195;BME280;37259;49.972;19.850;2022-08-19T05:32:07;98090;;;20.9;100
51195;BME280;37259;49.972;19.850;2022-08-19T05:33:07;98090;;;20.9;100
51195;BME280;37259;49.972;19.850;2022-08-19T05:34:07;98090;;;21.1;100
51195;BME280;37259;49.972;19.850;2022-08-19T05:35:07;98090;;;21.1;100
51195;BME280;37259;49.972;19.850;2022-08-19T05:36:07;98090;;;21.2;100
51195;BME280;37259;49.972;19.850;2022-08-19T05:37:07;98090;;;21.2;100
51195;BME280;37259;49.972;19.850;2022-08-19T05:38:07;98090;;;21.2;100
51195;BME280;37259;49.972;19.850;2022-08-19T05:39:07;98090;;;21.2;100
51195;BME280;37259;49.972;19.850;2022-08-19T05:40:07;98090;;;21.3;100